サル島 の空港の天気 - METARとTAF

アミルカル・カブラル国際空港 ( GVAC / SID ) - カーボベルデ サル島
飛行場実況気象(Metar)
観測時間01/19 10:00 CVT (01/19 11:00 UTC)
風向・風速東北東 11m/s
視程10km以上
天気現象
全天の4割程度の雲 雲底高度 430m
気温23℃
湿度53%
気圧1021hPa
METARGVAC 191100Z 07021KT 9999 SCT014 23/13 Q1021 NOSIG
過去の天気等 Google飛行場航空写真 Wunderground天気予報

過去48時間のMETAR

飛行場予報(TAF)
発表時間: 1/19 04:00 CVT (1/19 05:00 UTC)
予報対象時間: 19日5時 CVT ~ 20日11時 CVT
風向・風速東北東 9m/s
視程10km以上
全天の8割程度の雲 雲底高度 430m
19日11時 CVT ~ 19日17時 CVT に一時的に
風向・風速東北東 9m/s 瞬間風速 14m/s
視程8000m
少しの雲 雲底高度 430m
TAF GVAC 190500Z 1906/2012 06018KT 9999 BKN014
TEMPO 1912/1918 06018G28KT 8000 FEW014